Nordic — PBGD — position and weather

sailwx.info

Track history (hours):
 
Tides and Currents Weather Stations Pressure Air Temp Water Temp Dewpoint Dewpoint Depression Visibility Wind Speed Wind Dir Waves Ship Positions

Nordic

Last reported at 2017-Oct-14 23:15 UTC. Time now 2017-Oct-17 02:15 UTC.
Position N 44°26' W 008°09'.

Length 92 m; draft 3.9 m.

Type: Cargo ship. MMSI: 244868000.

Date/timePositionNaut miles runAvg speedWind from/ knotsBaromVisibWave heightAir tempDewpointWater temp
2017-Oct-14 23:15N 44°26' W 008°09'910.2
2017-Oct-14 22:19N 44°35' W 008°06'310.0
2017-Oct-14 22:00N 44°38' W 008°05'510.1
2017-Oct-14 21:30N 44°43' W 008°04'4 8.1
2017-Oct-14 21:00N 44°47' W 008°02'7 8.2
2017-Oct-14 20:12N 44°53' W 007°59'2 8.5
2017-Oct-14 19:59N 44°55' W 007°58'5 8.8
2017-Oct-14 19:25N 44°60' W 007°56'3 8.3
2017-Oct-14 19:00N 45°03' W 007°55'151 9.2
2017-Oct-14 02:33N 47°29' W 006°59'13410.3
2017-Oct-13 13:36N 49°38' W 006°07'18 9.9
2017-Oct-13 11:49N 49°55' W 006°00'11 9.9
2017-Oct-13 10:41N 50°06' W 005°60'4 9.2
2017-Oct-13 10:15N 50°10' W 005°59'11 9.0
2017-Oct-13 09:01N 50°22' W 005°59'0 8.7
2017-Oct-13 09:00N 50°22' W 005°59'4 8.1
2017-Oct-13 08:29N 50°25' W 005°55'4 7.7
2017-Oct-13 07:59N 50°27' W 005°50'4 7.8
2017-Oct-13 07:30N 50°30' W 005°46'4 8.2
2017-Oct-13 07:00N 50°32' W 005°41'4 8.3
2017-Oct-13 06:30N 50°35' W 005°36'4 8.4
2017-Oct-13 06:00N 50°38' W 005°31'4 8.6
2017-Oct-13 05:30N 50°40' W 005°25'4 8.8
2017-Oct-13 05:00N 50°43' W 005°20'4 8.8
2017-Oct-13 04:30N 50°46' W 005°14'5 9.0
2017-Oct-13 04:00N 50°48' W 005°09'5 9.1
2017-Oct-13 03:30N 50°51' W 005°03'5 9.3
2017-Oct-13 03:00N 50°55' W 004°58'5 9.4
2017-Oct-13 02:30N 50°58' W 004°52'5 9.3
2017-Oct-13 02:00N 51°01' W 004°46'5 9.3
2017-Oct-13 01:30N 51°04' W 004°41'5 9.4
2017-Oct-13 01:00N 51°07' W 004°35'4 9.1
2017-Oct-13 00:30N 51°10' W 004°30'29 9.0
2017-Oct-12 21:18N 51°32' W 003°60'  
2017-Oct-10 12:09N 51°33' W 003°58'21 8.4
2017-Oct-10 09:40N 51°18' W 004°21'3 9.9
2017-Oct-10 09:21N 51°16' W 004°24'3 8.7
2017-Oct-10 09:00N 51°13' W 004°28'5 9.3
2017-Oct-10 08:30N 51°10' W 004°32'510.0
2017-Oct-10 08:00N 51°06' W 004°38'5 9.9
2017-Oct-10 07:30N 51°03' W 004°44'5 9.9
2017-Oct-10 07:00N 50°60' W 004°50'5 9.8
2017-Oct-10 06:30N 50°56' W 004°55'5 9.7
2017-Oct-10 06:00N 50°53' W 005°01'611.4
2017-Oct-10 05:30N 50°49' W 005°07'611.3
2017-Oct-10 05:00N 50°45' W 005°13'611.1
2017-Oct-10 04:30N 50°41' W 005°20'510.9
2017-Oct-10 04:00N 50°37' W 005°26'510.7
2017-Oct-10 03:30N 50°34' W 005°32'510.5
2017-Oct-10 03:00N 50°30' W 005°38'510.2
2017-Oct-10 02:30N 50°26' W 005°44'5 9.9
2017-Oct-10 02:00N 50°23' W 005°49'5 9.4
2017-Oct-10 01:30N 50°19' W 005°54'5 9.9
2017-Oct-10 01:00N 50°14' W 005°54'6 9.8
2017-Oct-10 00:25N 50°09' W 005°54'5 9.5
2017-Oct-09 23:57N 50°04' W 005°54'4 9.0
2017-Oct-09 23:30N 49°60' W 005°54'20 9.4
2017-Oct-09 21:20N 49°40' W 006°03'610.4
2017-Oct-09 20:46N 49°35' W 006°07'410.5
2017-Oct-09 20:24N 49°31' W 006°09'911.3
2017-Oct-09 19:38N 49°23' W 006°14'211.5
2017-Oct-09 19:29N 49°22' W 006°15'6712.1
2017-Oct-09 13:58N 48°20' W 006°54'2711.3
2017-Oct-09 11:33N 47°55' W 007°10'41210.3
2017-Oct-07 19:31N 41°11' W 009°02'010.5
2017-Oct-07 19:30N 41°10' W 009°02'510.4
2017-Oct-07 18:59N 41°05' W 008°60'510.7
2017-Oct-07 18:30N 41°01' W 008°57'510.5
2017-Oct-07 18:00N 40°56' W 008°55'1510.6
2017-Oct-07 16:36N 40°41' W 008°49'210.5
2017-Oct-07 16:22N 40°39' W 008°48'4 7.3
2017-Oct-07 15:51N 40°39' W 008°43'  
2017-Oct-05 00:16N 40°58' W 009°01'3 8.0
2017-Oct-04 23:52N 41°00' W 009°03'  
Track history (hours):
 
Tides and Currents Weather Stations Pressure Air Temp Water Temp Dewpoint Dewpoint Depression Visibility Wind Speed Wind Dir Waves Ship Positions

Nordic

Last reported at 2017-Oct-14 23:15 UTC. Time now 2017-Oct-17 02:15 UTC.
Position N 44°26' W 008°09'.

Length 92 m; draft 3.9 m.

Type: Cargo ship. MMSI: 244868000.

Date/timePositionNaut miles runAvg speedWind from/ knotsBaromVisibWave heightAir tempDewpointWater temp
2017-Oct-14 23:15N 44°26' W 008°09'910.2
2017-Oct-14 22:19N 44°35' W 008°06'310.0
2017-Oct-14 22:00N 44°38' W 008°05'510.1
2017-Oct-14 21:30N 44°43' W 008°04'4 8.1
2017-Oct-14 21:00N 44°47' W 008°02'7 8.2
2017-Oct-14 20:12N 44°53' W 007°59'2 8.5
2017-Oct-14 19:59N 44°55' W 007°58'5 8.8
2017-Oct-14 19:25N 44°60' W 007°56'3 8.3
2017-Oct-14 19:00N 45°03' W 007°55'151 9.2
2017-Oct-14 02:33N 47°29' W 006°59'13410.3
2017-Oct-13 13:36N 49°38' W 006°07'18 9.9
2017-Oct-13 11:49N 49°55' W 006°00'11 9.9
2017-Oct-13 10:41N 50°06' W 005°60'4 9.2
2017-Oct-13 10:15N 50°10' W 005°59'11 9.0
2017-Oct-13 09:01N 50°22' W 005°59'0 8.7
2017-Oct-13 09:00N 50°22' W 005°59'4 8.1
2017-Oct-13 08:29N 50°25' W 005°55'4 7.7
2017-Oct-13 07:59N 50°27' W 005°50'4 7.8
2017-Oct-13 07:30N 50°30' W 005°46'4 8.2
2017-Oct-13 07:00N 50°32' W 005°41'4 8.3
2017-Oct-13 06:30N 50°35' W 005°36'4 8.4
2017-Oct-13 06:00N 50°38' W 005°31'4 8.6
2017-Oct-13 05:30N 50°40' W 005°25'4 8.8
2017-Oct-13 05:00N 50°43' W 005°20'4 8.8
2017-Oct-13 04:30N 50°46' W 005°14'5 9.0
2017-Oct-13 04:00N 50°48' W 005°09'5 9.1
2017-Oct-13 03:30N 50°51' W 005°03'5 9.3
2017-Oct-13 03:00N 50°55' W 004°58'5 9.4
2017-Oct-13 02:30N 50°58' W 004°52'5 9.3
2017-Oct-13 02:00N 51°01' W 004°46'5 9.3
2017-Oct-13 01:30N 51°04' W 004°41'5 9.4
2017-Oct-13 01:00N 51°07' W 004°35'4 9.1
2017-Oct-13 00:30N 51°10' W 004°30'29 9.0
2017-Oct-12 21:18N 51°32' W 003°60'  
2017-Oct-10 12:09N 51°33' W 003°58'21 8.4
2017-Oct-10 09:40N 51°18' W 004°21'3 9.9
2017-Oct-10 09:21N 51°16' W 004°24'3 8.7
2017-Oct-10 09:00N 51°13' W 004°28'5 9.3
2017-Oct-10 08:30N 51°10' W 004°32'510.0
2017-Oct-10 08:00N 51°06' W 004°38'5 9.9
2017-Oct-10 07:30N 51°03' W 004°44'5 9.9
2017-Oct-10 07:00N 50°60' W 004°50'5 9.8
2017-Oct-10 06:30N 50°56' W 004°55'5 9.7
2017-Oct-10 06:00N 50°53' W 005°01'611.4
2017-Oct-10 05:30N 50°49' W 005°07'611.3
2017-Oct-10 05:00N 50°45' W 005°13'611.1
2017-Oct-10 04:30N 50°41' W 005°20'510.9
2017-Oct-10 04:00N 50°37' W 005°26'510.7
2017-Oct-10 03:30N 50°34' W 005°32'510.5
2017-Oct-10 03:00N 50°30' W 005°38'510.2
2017-Oct-10 02:30N 50°26' W 005°44'5 9.9
2017-Oct-10 02:00N 50°23' W 005°49'5 9.4
2017-Oct-10 01:30N 50°19' W 005°54'5 9.9
2017-Oct-10 01:00N 50°14' W 005°54'6 9.8
2017-Oct-10 00:25N 50°09' W 005°54'5 9.5
2017-Oct-09 23:57N 50°04' W 005°54'4 9.0
2017-Oct-09 23:30N 49°60' W 005°54'20 9.4
2017-Oct-09 21:20N 49°40' W 006°03'610.4
2017-Oct-09 20:46N 49°35' W 006°07'410.5
2017-Oct-09 20:24N 49°31' W 006°09'911.3
2017-Oct-09 19:38N 49°23' W 006°14'211.5
2017-Oct-09 19:29N 49°22' W 006°15'6712.1
2017-Oct-09 13:58N 48°20' W 006°54'2711.3
2017-Oct-09 11:33N 47°55' W 007°10'41210.3
2017-Oct-07 19:31N 41°11' W 009°02'010.5
2017-Oct-07 19:30N 41°10' W 009°02'510.4
2017-Oct-07 18:59N 41°05' W 008°60'510.7
2017-Oct-07 18:30N 41°01' W 008°57'510.5
2017-Oct-07 18:00N 40°56' W 008°55'1510.6
2017-Oct-07 16:36N 40°41' W 008°49'210.5
2017-Oct-07 16:22N 40°39' W 008°48'4 7.3
2017-Oct-07 15:51N 40°39' W 008°43'  
2017-Oct-05 00:16N 40°58' W 009°01'3 8.0
2017-Oct-04 23:52N 41°00' W 009°03'  

Dump ship's entire track history